sensor_id;sensor_type;location;lat;lon;timestamp;P1;durP1;ratioP1;P2;durP2;ratioP2
20988;SDS011;10653;47.052;15.410;2024-01-30T00:00:13;17.17;;;13.23;;
20988;SDS011;10653;47.052;15.410;2024-01-30T00:02:40;19.42;;;12.70;;
20988;SDS011;10653;47.052;15.410;2024-01-30T00:05:06;18.05;;;14.70;;
20988;SDS011;10653;47.052;15.410;2024-01-30T00:07:32;16.73;;;13.32;;
20988;SDS011;10653;47.052;15.410;2024-01-30T00:09:58;15.90;;;13.03;;
20988;SDS011;10653;47.052;15.410;2024-01-30T00:12:24;15.00;;;11.30;;
20988;SDS011;10653;47.052;15.410;2024-01-30T00:14:51;15.60;;;13.20;;
20988;SDS011;10653;47.052;15.410;2024-01-30T00:17:17;20.37;;;13.23;;
20988;SDS011;10653;47.052;15.410;2024-01-30T00:19:44;16.80;;;12.80;;
20988;SDS011;10653;47.052;15.410;2024-01-30T00:22:10;16.17;;;13.00;;
20988;SDS011;10653;47.052;15.410;2024-01-30T00:24:36;19.50;;;13.00;;
20988;SDS011;10653;47.052;15.410;2024-01-30T00:27:02;14.90;;;13.05;;
20988;SDS011;10653;47.052;15.410;2024-01-30T00:29:28;17.30;;;13.55;;
20988;SDS011;10653;47.052;15.410;2024-01-30T00:31:56;13.25;;;11.88;;
20988;SDS011;10653;47.052;15.410;2024-01-30T00:34:22;17.88;;;12.52;;
20988;SDS011;10653;47.052;15.410;2024-01-30T00:36:48;14.77;;;13.00;;
20988;SDS011;10653;47.052;15.410;2024-01-30T00:39:14;14.30;;;12.90;;
20988;SDS011;10653;47.052;15.410;2024-01-30T00:41:40;16.70;;;14.90;;
20988;SDS011;10653;47.052;15.410;2024-01-30T00:44:06;15.82;;;13.15;;
20988;SDS011;10653;47.052;15.410;2024-01-30T00:46:32;15.40;;;12.35;;
20988;SDS011;10653;47.052;15.410;2024-01-30T00:48:58;15.30;;;12.73;;
20988;SDS011;10653;47.052;15.410;2024-01-30T00:51:24;14.70;;;12.90;;
20988;SDS011;10653;47.052;15.410;2024-01-30T00:53:50;18.57;;;12.50;;
20988;SDS011;10653;47.052;15.410;2024-01-30T00:56:16;15.60;;;11.83;;
20988;SDS011;10653;47.052;15.410;2024-01-30T00:58:43;17.60;;;14.07;;
20988;SDS011;10653;47.052;15.410;2024-01-30T01:01:09;16.20;;;13.00;;
20988;SDS011;10653;47.052;15.410;2024-01-30T01:03:36;15.75;;;13.18;;
20988;SDS011;10653;47.052;15.410;2024-01-30T01:06:02;15.70;;;12.27;;
20988;SDS011;10653;47.052;15.410;2024-01-30T01:08:28;18.75;;;14.10;;
20988;SDS011;10653;47.052;15.410;2024-01-30T01:10:54;15.30;;;12.23;;
20988;SDS011;10653;47.052;15.410;2024-01-30T01:13:20;19.13;;;13.10;;
20988;SDS011;10653;47.052;15.410;2024-01-30T01:15:46;16.63;;;13.50;;
20988;SDS011;10653;47.052;15.410;2024-01-30T01:18:12;20.90;;;14.30;;
20988;SDS011;10653;47.052;15.410;2024-01-30T01:20:38;17.50;;;13.43;;
20988;SDS011;10653;47.052;15.410;2024-01-30T01:23:04;15.67;;;12.83;;
20988;SDS011;10653;47.052;15.410;2024-01-30T01:25:30;16.98;;;12.20;;
20988;SDS011;10653;47.052;15.410;2024-01-30T01:27:56;14.20;;;12.27;;
20988;SDS011;10653;47.052;15.410;2024-01-30T01:30:22;16.42;;;12.65;;
20988;SDS011;10653;47.052;15.410;2024-01-30T01:32:48;13.57;;;12.15;;
20988;SDS011;10653;47.052;15.410;2024-01-30T01:35:24;15.05;;;11.50;;
20988;SDS011;10653;47.052;15.410;2024-01-30T01:37:50;16.00;;;12.15;;
20988;SDS011;10653;47.052;15.410;2024-01-30T01:40:20;14.98;;;13.38;;
20988;SDS011;10653;47.052;15.410;2024-01-30T01:42:47;14.85;;;11.90;;
20988;SDS011;10653;47.052;15.410;2024-01-30T01:45:13;15.68;;;13.48;;
20988;SDS011;10653;47.052;15.410;2024-01-30T01:47:39;14.27;;;12.55;;
20988;SDS011;10653;47.052;15.410;2024-01-30T01:50:05;19.52;;;13.65;;
20988;SDS011;10653;47.052;15.410;2024-01-30T01:52:31;18.60;;;14.18;;
20988;SDS011;10653;47.052;15.410;2024-01-30T01:54:58;17.23;;;13.75;;
20988;SDS011;10653;47.052;15.410;2024-01-30T01:57:24;14.93;;;12.48;;
20988;SDS011;10653;47.052;15.410;2024-01-30T01:59:50;13.60;;;11.70;;
20988;SDS011;10653;47.052;15.410;2024-01-30T02:02:16;16.98;;;12.80;;
20988;SDS011;10653;47.052;15.410;2024-01-30T02:04:43;14.63;;;12.55;;
20988;SDS011;10653;47.052;15.410;2024-01-30T02:07:09;17.73;;;12.65;;
20988;SDS011;10653;47.052;15.410;2024-01-30T02:09:36;18.13;;;12.18;;
20988;SDS011;10653;47.052;15.410;2024-01-30T02:12:02;16.13;;;12.60;;
20988;SDS011;10653;47.052;15.410;2024-01-30T02:14:28;21.10;;;12.95;;
20988;SDS011;10653;47.052;15.410;2024-01-30T02:16:54;16.77;;;12.43;;
20988;SDS011;10653;47.052;15.410;2024-01-30T02:19:20;14.07;;;11.30;;
20988;SDS011;10653;47.052;15.410;2024-01-30T02:21:46;12.97;;;11.03;;
20988;SDS011;10653;47.052;15.410;2024-01-30T02:24:12;12.90;;;11.20;;
20988;SDS011;10653;47.052;15.410;2024-01-30T02:26:38;13.83;;;12.40;;
20988;SDS011;10653;47.052;15.410;2024-01-30T02:29:04;14.35;;;11.95;;
20988;SDS011;10653;47.052;15.410;2024-01-30T02:31:30;13.55;;;11.50;;
20988;SDS011;10653;47.052;15.410;2024-01-30T02:33:56;15.00;;;12.75;;
20988;SDS011;10653;47.052;15.410;2024-01-30T02:36:22;20.65;;;14.38;;
20988;SDS011;10653;47.052;15.410;2024-01-30T02:38:48;17.95;;;14.10;;
20988;SDS011;10653;47.052;15.410;2024-01-30T02:41:14;16.10;;;12.77;;
20988;SDS011;10653;47.052;15.410;2024-01-30T02:43:41;17.55;;;13.60;;
20988;SDS011;10653;47.052;15.410;2024-01-30T02:46:06;19.10;;;12.90;;
20988;SDS011;10653;47.052;15.410;2024-01-30T02:48:33;19.80;;;17.58;;
20988;SDS011;10653;47.052;15.410;2024-01-30T02:50:58;22.13;;;17.30;;
20988;SDS011;10653;47.052;15.410;2024-01-30T02:53:24;22.20;;;18.20;;
20988;SDS011;10653;47.052;15.410;2024-01-30T02:55:50;24.90;;;18.98;;
20988;SDS011;10653;47.052;15.410;2024-01-30T02:58:16;26.60;;;19.13;;
20988;SDS011;10653;47.052;15.410;2024-01-30T03:00:42;21.65;;;17.50;;
20988;SDS011;10653;47.052;15.410;2024-01-30T03:03:08;28.83;;;17.85;;
20988;SDS011;10653;47.052;15.410;2024-01-30T03:05:34;24.40;;;18.50;;
20988;SDS011;10653;47.052;15.410;2024-01-30T03:08:00;26.40;;;19.20;;
20988;SDS011;10653;47.052;15.410;2024-01-30T03:10:26;23.43;;;18.20;;
20988;SDS011;10653;47.052;15.410;2024-01-30T03:12:52;27.83;;;16.73;;
20988;SDS011;10653;47.052;15.410;2024-01-30T03:15:18;24.47;;;17.50;;
20988;SDS011;10653;47.052;15.410;2024-01-30T03:17:45;23.15;;;16.60;;
20988;SDS011;10653;47.052;15.410;2024-01-30T03:20:11;21.48;;;17.10;;
20988;SDS011;10653;47.052;15.410;2024-01-30T03:22:37;23.08;;;17.88;;
20988;SDS011;10653;47.052;15.410;2024-01-30T03:25:03;21.60;;;17.73;;
20988;SDS011;10653;47.052;15.410;2024-01-30T03:27:29;29.45;;;19.17;;
20988;SDS011;10653;47.052;15.410;2024-01-30T03:29:55;24.87;;;19.83;;
20988;SDS011;10653;47.052;15.410;2024-01-30T03:32:21;27.53;;;20.43;;
20988;SDS011;10653;47.052;15.410;2024-01-30T03:34:47;22.45;;;17.20;;
20988;SDS011;10653;47.052;15.410;2024-01-30T03:37:13;23.77;;;18.17;;
20988;SDS011;10653;47.052;15.410;2024-01-30T03:39:39;20.15;;;16.63;;
20988;SDS011;10653;47.052;15.410;2024-01-30T03:42:05;24.83;;;17.17;;
20988;SDS011;10653;47.052;15.410;2024-01-30T03:44:31;26.43;;;16.47;;
20988;SDS011;10653;47.052;15.410;2024-01-30T03:46:57;21.25;;;16.27;;
20988;SDS011;10653;47.052;15.410;2024-01-30T03:49:23;25.70;;;16.45;;
20988;SDS011;10653;47.052;15.410;2024-01-30T03:51:49;20.70;;;17.03;;
20988;SDS011;10653;47.052;15.410;2024-01-30T03:54:15;23.17;;;15.20;;
20988;SDS011;10653;47.052;15.410;2024-01-30T03:56:41;20.83;;;16.25;;
20988;SDS011;10653;47.052;15.410;2024-01-30T03:59:07;22.27;;;16.45;;
20988;SDS011;10653;47.052;15.410;2024-01-30T04:01:33;24.42;;;16.77;;
20988;SDS011;10653;47.052;15.410;2024-01-30T04:03:59;21.47;;;15.93;;
20988;SDS011;10653;47.052;15.410;2024-01-30T04:06:26;21.37;;;15.80;;
20988;SDS011;10653;47.052;15.410;2024-01-30T04:08:52;23.75;;;16.83;;
20988;SDS011;10653;47.052;15.410;2024-01-30T04:11:18;21.87;;;18.43;;
20988;SDS011;10653;47.052;15.410;2024-01-30T04:13:45;22.92;;;17.33;;
20988;SDS011;10653;47.052;15.410;2024-01-30T04:16:22;29.13;;;17.58;;
20988;SDS011;10653;47.052;15.410;2024-01-30T04:18:48;22.23;;;15.40;;
20988;SDS011;10653;47.052;15.410;2024-01-30T04:21:14;19.67;;;16.53;;
20988;SDS011;10653;47.052;15.410;2024-01-30T04:23:41;22.65;;;16.17;;
20988;SDS011;10653;47.052;15.410;2024-01-30T04:26:07;21.52;;;16.15;;
20988;SDS011;10653;47.052;15.410;2024-01-30T04:28:33;24.77;;;17.73;;
20988;SDS011;10653;47.052;15.410;2024-01-30T04:30:59;26.60;;;16.63;;
20988;SDS011;10653;47.052;15.410;2024-01-30T04:33:25;21.73;;;15.80;;
20988;SDS011;10653;47.052;15.410;2024-01-30T04:35:51;22.30;;;15.20;;
20988;SDS011;10653;47.052;15.410;2024-01-30T04:38:17;23.27;;;15.18;;
20988;SDS011;10653;47.052;15.410;2024-01-30T04:40:43;21.55;;;15.95;;
20988;SDS011;10653;47.052;15.410;2024-01-30T04:43:09;18.45;;;14.35;;
20988;SDS011;10653;47.052;15.410;2024-01-30T04:45:35;20.40;;;15.83;;
20988;SDS011;10653;47.052;15.410;2024-01-30T04:48:01;23.57;;;17.73;;
20988;SDS011;10653;47.052;15.410;2024-01-30T04:50:27;18.10;;;14.77;;
20988;SDS011;10653;47.052;15.410;2024-01-30T04:52:53;18.25;;;15.00;;
20988;SDS011;10653;47.052;15.410;2024-01-30T04:55:19;25.33;;;17.00;;
20988;SDS011;10653;47.052;15.410;2024-01-30T04:57:45;19.98;;;15.30;;
20988;SDS011;10653;47.052;15.410;2024-01-30T05:00:11;18.40;;;15.15;;
20988;SDS011;10653;47.052;15.410;2024-01-30T05:02:37;17.60;;;15.45;;
20988;SDS011;10653;47.052;15.410;2024-01-30T05:05:04;23.63;;;17.77;;
20988;SDS011;10653;47.052;15.410;2024-01-30T05:07:30;34.63;;;23.80;;
20988;SDS011;10653;47.052;15.410;2024-01-30T05:09:56;21.95;;;17.10;;
20988;SDS011;10653;47.052;15.410;2024-01-30T05:12:22;22.80;;;16.42;;
20988;SDS011;10653;47.052;15.410;2024-01-30T05:14:48;19.60;;;16.60;;
20988;SDS011;10653;47.052;15.410;2024-01-30T05:17:14;23.02;;;16.23;;
20988;SDS011;10653;47.052;15.410;2024-01-30T05:19:40;20.40;;;16.40;;
20988;SDS011;10653;47.052;15.410;2024-01-30T05:22:06;23.80;;;16.25;;
20988;SDS011;10653;47.052;15.410;2024-01-30T05:24:32;23.13;;;16.17;;
20988;SDS011;10653;47.052;15.410;2024-01-30T05:26:59;16.73;;;14.57;;
20988;SDS011;10653;47.052;15.410;2024-01-30T05:29:25;21.85;;;19.25;;
20988;SDS011;10653;47.052;15.410;2024-01-30T05:31:51;19.77;;;17.35;;
20988;SDS011;10653;47.052;15.410;2024-01-30T05:34:17;22.40;;;17.55;;
20988;SDS011;10653;47.052;15.410;2024-01-30T05:36:43;21.63;;;15.05;;
20988;SDS011;10653;47.052;15.410;2024-01-30T05:39:09;18.98;;;14.75;;
20988;SDS011;10653;47.052;15.410;2024-01-30T05:41:35;16.20;;;14.50;;
20988;SDS011;10653;47.052;15.410;2024-01-30T05:44:01;19.10;;;13.87;;
20988;SDS011;10653;47.052;15.410;2024-01-30T05:46:27;19.58;;;15.15;;
20988;SDS011;10653;47.052;15.410;2024-01-30T05:48:53;19.02;;;14.90;;
20988;SDS011;10653;47.052;15.410;2024-01-30T05:51:19;17.53;;;13.90;;
20988;SDS011;10653;47.052;15.410;2024-01-30T05:53:45;17.93;;;13.00;;
20988;SDS011;10653;47.052;15.410;2024-01-30T05:56:11;18.10;;;12.23;;
20988;SDS011;10653;47.052;15.410;2024-01-30T05:58:37;17.00;;;12.43;;
20988;SDS011;10653;47.052;15.410;2024-01-30T06:01:06;14.98;;;12.27;;
20988;SDS011;10653;47.052;15.410;2024-01-30T06:03:33;17.23;;;12.55;;
20988;SDS011;10653;47.052;15.410;2024-01-30T06:05:59;14.05;;;11.68;;
20988;SDS011;10653;47.052;15.410;2024-01-30T06:08:25;16.65;;;12.10;;
20988;SDS011;10653;47.052;15.410;2024-01-30T06:10:51;14.00;;;10.82;;
20988;SDS011;10653;47.052;15.410;2024-01-30T06:13:17;14.82;;;10.35;;
20988;SDS011;10653;47.052;15.410;2024-01-30T06:15:43;15.38;;;12.00;;
20988;SDS011;10653;47.052;15.410;2024-01-30T06:18:09;14.30;;;11.30;;
20988;SDS011;10653;47.052;15.410;2024-01-30T06:20:35;15.40;;;12.87;;
20988;SDS011;10653;47.052;15.410;2024-01-30T06:23:01;15.68;;;11.05;;
20988;SDS011;10653;47.052;15.410;2024-01-30T06:25:27;16.52;;;12.75;;
20988;SDS011;10653;47.052;15.410;2024-01-30T06:27:53;16.90;;;13.43;;
20988;SDS011;10653;47.052;15.410;2024-01-30T06:30:19;17.17;;;12.13;;
20988;SDS011;10653;47.052;15.410;2024-01-30T06:32:45;16.88;;;12.80;;
20988;SDS011;10653;47.052;15.410;2024-01-30T06:35:11;18.97;;;12.60;;
20988;SDS011;10653;47.052;15.410;2024-01-30T06:37:37;17.35;;;12.75;;
20988;SDS011;10653;47.052;15.410;2024-01-30T06:40:04;14.73;;;12.10;;
20988;SDS011;10653;47.052;15.410;2024-01-30T06:42:30;17.35;;;13.50;;
20988;SDS011;10653;47.052;15.410;2024-01-30T06:44:56;18.08;;;13.45;;
20988;SDS011;10653;47.052;15.410;2024-01-30T06:47:22;15.90;;;12.02;;
20988;SDS011;10653;47.052;15.410;2024-01-30T06:49:48;15.63;;;12.73;;
20988;SDS011;10653;47.052;15.410;2024-01-30T06:52:14;18.63;;;12.63;;
20988;SDS011;10653;47.052;15.410;2024-01-30T06:54:40;14.63;;;12.93;;
20988;SDS011;10653;47.052;15.410;2024-01-30T06:57:06;16.97;;;12.20;;
20988;SDS011;10653;47.052;15.410;2024-01-30T06:59:36;16.30;;;11.93;;
20988;SDS011;10653;47.052;15.410;2024-01-30T07:02:08;15.25;;;12.57;;
20988;SDS011;10653;47.052;15.410;2024-01-30T07:04:34;15.40;;;12.02;;
20988;SDS011;10653;47.052;15.410;2024-01-30T07:07:02;17.38;;;13.63;;
20988;SDS011;10653;47.052;15.410;2024-01-30T07:09:29;17.13;;;12.95;;
20988;SDS011;10653;47.052;15.410;2024-01-30T07:11:55;18.10;;;13.63;;
20988;SDS011;10653;47.052;15.410;2024-01-30T07:14:23;17.67;;;14.82;;
20988;SDS011;10653;47.052;15.410;2024-01-30T07:16:49;22.27;;;13.32;;
20988;SDS011;10653;47.052;15.410;2024-01-30T07:19:15;16.40;;;14.70;;
20988;SDS011;10653;47.052;15.410;2024-01-30T07:21:41;20.75;;;18.65;;
20988;SDS011;10653;47.052;15.410;2024-01-30T07:24:07;22.95;;;16.55;;
20988;SDS011;10653;47.052;15.410;2024-01-30T07:26:33;17.90;;;15.60;;
20988;SDS011;10653;47.052;15.410;2024-01-30T07:29:00;19.13;;;17.10;;
20988;SDS011;10653;47.052;15.410;2024-01-30T07:31:27;19.15;;;14.90;;
20988;SDS011;10653;47.052;15.410;2024-01-30T07:33:52;18.90;;;15.73;;
20988;SDS011;10653;47.052;15.410;2024-01-30T07:36:19;24.65;;;16.38;;
20988;SDS011;10653;47.052;15.410;2024-01-30T07:38:45;21.60;;;16.25;;
20988;SDS011;10653;47.052;15.410;2024-01-30T07:41:11;24.25;;;15.20;;
20988;SDS011;10653;47.052;15.410;2024-01-30T07:43:40;21.37;;;15.07;;
20988;SDS011;10653;47.052;15.410;2024-01-30T07:46:06;17.10;;;13.88;;
20988;SDS011;10653;47.052;15.410;2024-01-30T07:48:33;24.38;;;15.65;;
20988;SDS011;10653;47.052;15.410;2024-01-30T07:50:59;19.70;;;16.90;;
20988;SDS011;10653;47.052;15.410;2024-01-30T07:53:25;23.63;;;17.35;;
20988;SDS011;10653;47.052;15.410;2024-01-30T07:55:51;22.07;;;16.90;;
20988;SDS011;10653;47.052;15.410;2024-01-30T07:58:18;21.83;;;17.95;;
20988;SDS011;10653;47.052;15.410;2024-01-30T08:00:44;28.63;;;20.23;;
20988;SDS011;10653;47.052;15.410;2024-01-30T08:03:10;31.02;;;20.92;;
20988;SDS011;10653;47.052;15.410;2024-01-30T08:05:36;35.03;;;24.63;;
20988;SDS011;10653;47.052;15.410;2024-01-30T08:08:04;27.58;;;21.15;;
20988;SDS011;10653;47.052;15.410;2024-01-30T08:10:30;27.63;;;20.77;;
20988;SDS011;10653;47.052;15.410;2024-01-30T08:12:56;22.95;;;19.58;;
20988;SDS011;10653;47.052;15.410;2024-01-30T08:15:22;27.00;;;21.10;;
20988;SDS011;10653;47.052;15.410;2024-01-30T08:17:48;26.33;;;21.20;;
20988;SDS011;10653;47.052;15.410;2024-01-30T08:20:14;30.23;;;22.13;;
20988;SDS011;10653;47.052;15.410;2024-01-30T08:22:41;24.52;;;21.05;;
20988;SDS011;10653;47.052;15.410;2024-01-30T08:25:07;29.13;;;22.73;;
20988;SDS011;10653;47.052;15.410;2024-01-30T08:27:34;30.52;;;21.90;;
20988;SDS011;10653;47.052;15.410;2024-01-30T08:30:03;31.63;;;22.25;;
20988;SDS011;10653;47.052;15.410;2024-01-30T08:32:29;26.50;;;21.90;;
20988;SDS011;10653;47.052;15.410;2024-01-30T08:34:55;26.30;;;21.23;;
20988;SDS011;10653;47.052;15.410;2024-01-30T08:37:21;27.25;;;22.80;;
20988;SDS011;10653;47.052;15.410;2024-01-30T08:39:47;29.02;;;21.42;;
20988;SDS011;10653;47.052;15.410;2024-01-30T08:42:13;26.50;;;21.03;;
20988;SDS011;10653;47.052;15.410;2024-01-30T08:44:39;24.33;;;20.67;;
20988;SDS011;10653;47.052;15.410;2024-01-30T08:47:05;28.30;;;21.73;;
20988;SDS011;10653;47.052;15.410;2024-01-30T08:49:31;26.88;;;21.85;;
20988;SDS011;10653;47.052;15.410;2024-01-30T08:51:57;32.25;;;23.60;;
20988;SDS011;10653;47.052;15.410;2024-01-30T08:54:23;26.67;;;22.13;;
20988;SDS011;10653;47.052;15.410;2024-01-30T08:56:49;28.10;;;21.57;;
20988;SDS011;10653;47.052;15.410;2024-01-30T08:59:17;27.15;;;22.42;;
20988;SDS011;10653;47.052;15.410;2024-01-30T09:01:43;28.67;;;22.98;;
20988;SDS011;10653;47.052;15.410;2024-01-30T09:04:09;26.83;;;22.10;;
20988;SDS011;10653;47.052;15.410;2024-01-30T09:06:35;27.08;;;22.20;;
20988;SDS011;10653;47.052;15.410;2024-01-30T09:09:04;23.33;;;20.33;;
20988;SDS011;10653;47.052;15.410;2024-01-30T09:11:30;22.58;;;18.55;;
20988;SDS011;10653;47.052;15.410;2024-01-30T09:13:56;24.15;;;19.75;;
20988;SDS011;10653;47.052;15.410;2024-01-30T09:16:23;25.20;;;19.58;;
20988;SDS011;10653;47.052;15.410;2024-01-30T09:18:49;28.10;;;17.83;;
20988;SDS011;10653;47.052;15.410;2024-01-30T09:21:15;23.33;;;17.37;;
20988;SDS011;10653;47.052;15.410;2024-01-30T09:23:41;24.40;;;18.63;;
20988;SDS011;10653;47.052;15.410;2024-01-30T09:26:07;20.02;;;16.50;;
20988;SDS011;10653;47.052;15.410;2024-01-30T09:28:33;28.47;;;25.20;;
20988;SDS011;10653;47.052;15.410;2024-01-30T09:30:59;30.63;;;25.05;;
20988;SDS011;10653;47.052;15.410;2024-01-30T09:33:25;19.90;;;17.77;;
20988;SDS011;10653;47.052;15.410;2024-01-30T09:35:51;17.97;;;13.57;;
20988;SDS011;10653;47.052;15.410;2024-01-30T09:38:17;27.50;;;24.53;;
20988;SDS011;10653;47.052;15.410;2024-01-30T09:40:43;18.93;;;16.93;;
20988;SDS011;10653;47.052;15.410;2024-01-30T09:43:10;19.77;;;15.73;;
20988;SDS011;10653;47.052;15.410;2024-01-30T09:45:37;18.63;;;12.90;;
20988;SDS011;10653;47.052;15.410;2024-01-30T09:48:03;16.92;;;12.20;;
20988;SDS011;10653;47.052;15.410;2024-01-30T09:50:29;19.08;;;14.15;;
20988;SDS011;10653;47.052;15.410;2024-01-30T09:52:56;17.10;;;12.55;;
20988;SDS011;10653;47.052;15.410;2024-01-30T09:55:23;20.20;;;14.52;;
20988;SDS011;10653;47.052;15.410;2024-01-30T09:57:49;16.60;;;13.70;;
20988;SDS011;10653;47.052;15.410;2024-01-30T10:00:16;18.13;;;13.50;;
20988;SDS011;10653;47.052;15.410;2024-01-30T10:02:42;20.20;;;12.95;;
20988;SDS011;10653;47.052;15.410;2024-01-30T10:05:09;14.98;;;12.60;;
20988;SDS011;10653;47.052;15.410;2024-01-30T10:07:35;23.50;;;13.20;;
20988;SDS011;10653;47.052;15.410;2024-01-30T10:10:01;19.83;;;14.03;;
20988;SDS011;10653;47.052;15.410;2024-01-30T10:12:28;18.57;;;12.30;;
20988;SDS011;10653;47.052;15.410;2024-01-30T10:14:55;17.23;;;12.23;;
20988;SDS011;10653;47.052;15.410;2024-01-30T10:17:24;17.02;;;13.43;;
20988;SDS011;10653;47.052;15.410;2024-01-30T10:19:50;15.55;;;13.23;;
20988;SDS011;10653;47.052;15.410;2024-01-30T10:22:16;18.38;;;13.70;;
20988;SDS011;10653;47.052;15.410;2024-01-30T10:24:42;19.88;;;13.45;;
20988;SDS011;10653;47.052;15.410;2024-01-30T10:27:10;22.27;;;13.85;;
20988;SDS011;10653;47.052;15.410;2024-01-30T10:29:37;20.90;;;14.60;;
20988;SDS011;10653;47.052;15.410;2024-01-30T10:32:03;21.27;;;14.38;;
20988;SDS011;10653;47.052;15.410;2024-01-30T10:34:30;18.55;;;12.63;;
20988;SDS011;10653;47.052;15.410;2024-01-30T10:37:02;24.92;;;14.23;;
20988;SDS011;10653;47.052;15.410;2024-01-30T10:39:31;18.70;;;13.35;;
20988;SDS011;10653;47.052;15.410;2024-01-30T10:41:59;17.23;;;13.27;;
20988;SDS011;10653;47.052;15.410;2024-01-30T10:44:30;17.42;;;12.88;;
20988;SDS011;10653;47.052;15.410;2024-01-30T10:47:00;21.15;;;13.80;;
20988;SDS011;10653;47.052;15.410;2024-01-30T10:49:28;12.23;;;10.77;;
20988;SDS011;10653;47.052;15.410;2024-01-30T10:51:54;15.38;;;11.70;;
20988;SDS011;10653;47.052;15.410;2024-01-30T10:54:21;19.80;;;12.77;;
20988;SDS011;10653;47.052;15.410;2024-01-30T10:56:48;16.40;;;10.90;;
20988;SDS011;10653;47.052;15.410;2024-01-30T10:59:14;21.23;;;11.73;;
20988;SDS011;10653;47.052;15.410;2024-01-30T11:01:41;14.52;;;11.20;;
20988;SDS011;10653;47.052;15.410;2024-01-30T11:04:07;14.97;;;10.97;;
20988;SDS011;10653;47.052;15.410;2024-01-30T11:06:40;20.43;;;11.27;;
20988;SDS011;10653;47.052;15.410;2024-01-30T11:09:10;16.10;;;10.23;;
20988;SDS011;10653;47.052;15.410;2024-01-30T11:11:56;14.43;;;10.47;;
20988;SDS011;10653;47.052;15.410;2024-01-30T11:14:26;11.50;;;9.20;;
20988;SDS011;10653;47.052;15.410;2024-01-30T11:16:52;11.87;;;8.63;;
20988;SDS011;10653;47.052;15.410;2024-01-30T11:19:24;9.40;;;8.40;;
20988;SDS011;10653;47.052;15.410;2024-01-30T11:21:51;17.17;;;10.10;;
20988;SDS011;10653;47.052;15.410;2024-01-30T11:24:21;15.17;;;10.47;;
20988;SDS011;10653;47.052;15.410;2024-01-30T11:26:57;14.30;;;10.43;;
20988;SDS011;10653;47.052;15.410;2024-01-30T11:29:24;16.60;;;11.90;;
20988;SDS011;10653;47.052;15.410;2024-01-30T11:31:57;16.73;;;11.23;;
20988;SDS011;10653;47.052;15.410;2024-01-30T11:34:23;15.07;;;11.87;;
20988;SDS011;10653;47.052;15.410;2024-01-30T11:36:53;15.20;;;12.27;;
20988;SDS011;10653;47.052;15.410;2024-01-30T11:39:24;16.77;;;11.63;;
20988;SDS011;10653;47.052;15.410;2024-01-30T11:41:51;16.93;;;11.83;;
20988;SDS011;10653;47.052;15.410;2024-01-30T11:44:18;14.27;;;11.67;;
20988;SDS011;10653;47.052;15.410;2024-01-30T11:46:45;14.20;;;12.43;;
20988;SDS011;10653;47.052;15.410;2024-01-30T11:49:11;16.57;;;11.63;;
20988;SDS011;10653;47.052;15.410;2024-01-30T11:51:37;13.70;;;12.20;;
20988;SDS011;10653;47.052;15.410;2024-01-30T11:54:03;14.37;;;12.60;;
20988;SDS011;10653;47.052;15.410;2024-01-30T11:56:29;12.07;;;10.80;;
20988;SDS011;10653;47.052;15.410;2024-01-30T11:58:55;12.20;;;10.70;;
20988;SDS011;10653;47.052;15.410;2024-01-30T12:01:21;14.17;;;10.67;;
20988;SDS011;10653;47.052;15.410;2024-01-30T12:03:50;12.90;;;10.13;;
20988;SDS011;10653;47.052;15.410;2024-01-30T12:06:17;14.07;;;10.33;;
20988;SDS011;10653;47.052;15.410;2024-01-30T12:08:43;15.07;;;10.00;;
20988;SDS011;10653;47.052;15.410;2024-01-30T12:11:19;12.27;;;9.73;;
20988;SDS011;10653;47.052;15.410;2024-01-30T12:13:45;12.97;;;10.60;;
20988;SDS011;10653;47.052;15.410;2024-01-30T12:16:11;12.80;;;9.80;;
20988;SDS011;10653;47.052;15.410;2024-01-30T12:18:38;12.60;;;10.00;;
20988;SDS011;10653;47.052;15.410;2024-01-30T12:21:04;11.50;;;10.30;;
20988;SDS011;10653;47.052;15.410;2024-01-30T12:23:30;16.50;;;10.73;;
20988;SDS011;10653;47.052;15.410;2024-01-30T12:25:56;10.67;;;9.57;;
20988;SDS011;10653;47.052;15.410;2024-01-30T12:28:22;15.83;;;9.30;;
20988;SDS011;10653;47.052;15.410;2024-01-30T12:30:48;16.03;;;9.20;;
20988;SDS011;10653;47.052;15.410;2024-01-30T12:33:17;16.40;;;10.80;;
20988;SDS011;10653;47.052;15.410;2024-01-30T12:35:47;10.17;;;9.17;;
20988;SDS011;10653;47.052;15.410;2024-01-30T12:38:14;12.47;;;10.10;;
20988;SDS011;10653;47.052;15.410;2024-01-30T12:40:40;15.10;;;10.83;;
20988;SDS011;10653;47.052;15.410;2024-01-30T12:43:06;12.80;;;10.40;;
20988;SDS011;10653;47.052;15.410;2024-01-30T12:45:33;13.40;;;10.77;;
20988;SDS011;10653;47.052;15.410;2024-01-30T12:47:59;15.13;;;11.80;;
20988;SDS011;10653;47.052;15.410;2024-01-30T12:50:25;14.13;;;11.77;;
20988;SDS011;10653;47.052;15.410;2024-01-30T12:52:51;12.37;;;10.43;;
20988;SDS011;10653;47.052;15.410;2024-01-30T12:55:17;14.20;;;11.27;;
20988;SDS011;10653;47.052;15.410;2024-01-30T12:57:43;20.13;;;11.53;;
20988;SDS011;10653;47.052;15.410;2024-01-30T13:00:09;17.60;;;12.63;;
20988;SDS011;10653;47.052;15.410;2024-01-30T13:02:35;12.03;;;10.60;;
20988;SDS011;10653;47.052;15.410;2024-01-30T13:05:05;13.50;;;10.90;;
20988;SDS011;10653;47.052;15.410;2024-01-30T13:07:31;14.70;;;12.17;;
20988;SDS011;10653;47.052;15.410;2024-01-30T13:09:57;13.63;;;12.17;;
20988;SDS011;10653;47.052;15.410;2024-01-30T13:12:28;16.17;;;12.57;;
20988;SDS011;10653;47.052;15.410;2024-01-30T13:14:54;15.37;;;12.47;;
20988;SDS011;10653;47.052;15.410;2024-01-30T13:17:20;14.10;;;11.80;;
20988;SDS011;10653;47.052;15.410;2024-01-30T13:19:46;13.33;;;10.80;;
20988;SDS011;10653;47.052;15.410;2024-01-30T13:22:14;15.00;;;11.10;;
20988;SDS011;10653;47.052;15.410;2024-01-30T13:24:40;21.23;;;11.80;;
20988;SDS011;10653;47.052;15.410;2024-01-30T13:27:06;12.73;;;10.60;;
20988;SDS011;10653;47.052;15.410;2024-01-30T13:29:32;13.17;;;11.80;;
20988;SDS011;10653;47.052;15.410;2024-01-30T13:31:58;13.23;;;11.07;;
20988;SDS011;10653;47.052;15.410;2024-01-30T13:34:24;12.67;;;10.90;;
20988;SDS011;10653;47.052;15.410;2024-01-30T13:36:50;14.07;;;10.83;;
20988;SDS011;10653;47.052;15.410;2024-01-30T13:39:17;12.40;;;11.10;;
20988;SDS011;10653;47.052;15.410;2024-01-30T13:41:43;13.33;;;11.30;;
20988;SDS011;10653;47.052;15.410;2024-01-30T13:44:09;11.90;;;10.70;;
20988;SDS011;10653;47.052;15.410;2024-01-30T13:46:35;12.33;;;10.87;;
20988;SDS011;10653;47.052;15.410;2024-01-30T13:49:01;15.60;;;10.67;;
20988;SDS011;10653;47.052;15.410;2024-01-30T13:51:27;11.20;;;9.33;;
20988;SDS011;10653;47.052;15.410;2024-01-30T13:53:53;10.73;;;9.63;;
20988;SDS011;10653;47.052;15.410;2024-01-30T13:56:20;11.30;;;9.97;;
20988;SDS011;10653;47.052;15.410;2024-01-30T13:58:48;12.90;;;10.33;;
20988;SDS011;10653;47.052;15.410;2024-01-30T14:01:15;14.53;;;10.37;;
20988;SDS011;10653;47.052;15.410;2024-01-30T14:03:41;12.57;;;10.37;;